createdAt,value
2023-03-14T00:01:14.766Z,0.82
2023-03-14T00:03:42.289Z,1.08
2023-03-14T00:06:12.170Z,1.00
2023-03-14T00:08:39.695Z,1.02
2023-03-14T00:11:08.911Z,1.10
2023-03-14T00:13:36.132Z,0.90
2023-03-14T00:16:05.098Z,1.33
2023-03-14T00:18:32.880Z,1.10
2023-03-14T00:21:00.942Z,1.17
2023-03-14T00:23:31.123Z,1.27
2023-03-14T00:26:00.884Z,1.05
2023-03-14T00:28:28.557Z,0.50
2023-03-14T00:30:56.745Z,0.85
2023-03-14T00:33:24.309Z,0.90
2023-03-14T00:35:55.951Z,0.68
2023-03-14T00:38:23.669Z,0.38
2023-03-14T00:40:52.838Z,0.90
2023-03-14T00:43:22.683Z,0.50
2023-03-14T00:45:50.297Z,0.75
2023-03-14T00:48:17.746Z,0.47
2023-03-14T00:50:45.071Z,0.65
2023-03-14T00:53:12.381Z,0.98
2023-03-14T00:55:40.472Z,1.33
2023-03-14T00:58:09.520Z,0.45
2023-03-14T01:00:37.427Z,0.05
2023-03-14T01:03:05.486Z,0.98
2023-03-14T01:05:33.149Z,0.85
2023-03-14T01:08:00.684Z,1.35
2023-03-14T01:10:28.367Z,0.80
2023-03-14T01:12:55.978Z,0.85
2023-03-14T01:15:24.736Z,0.40
2023-03-14T01:17:52.041Z,1.20
2023-03-14T01:20:19.453Z,0.55
2023-03-14T01:22:46.811Z,0.88
2023-03-14T01:25:17.380Z,1.05
2023-03-14T01:27:45.953Z,0.75
2023-03-14T01:30:14.434Z,1.40
2023-03-14T01:32:43.432Z,0.77
2023-03-14T01:35:11.102Z,1.25
2023-03-14T01:37:38.953Z,0.80
2023-03-14T01:40:12.115Z,0.80
2023-03-14T01:42:46.395Z,0.80
2023-03-14T01:45:46.634Z,0.90
2023-03-14T01:48:15.685Z,0.73
2023-03-14T01:50:43.497Z,1.33
2023-03-14T01:53:11.046Z,1.42
2023-03-14T01:55:38.429Z,1.20
2023-03-14T01:58:06.682Z,1.50
2023-03-14T02:00:34.123Z,1.13
2023-03-14T02:03:06.476Z,1.00
2023-03-14T02:05:39.286Z,0.82
2023-03-14T02:08:14.812Z,1.08
2023-03-14T02:13:27.743Z,0.95
2023-03-14T02:15:55.118Z,1.13
2023-03-14T02:18:47.008Z,1.98
2023-03-14T02:21:44.985Z,1.58
2023-03-14T02:24:21.515Z,1.30
2023-03-14T02:27:08.905Z,2.40
2023-03-14T02:29:45.061Z,2.40
2023-03-14T02:32:13.867Z,1.55
2023-03-14T02:34:43.486Z,1.60
2023-03-14T02:37:12.508Z,1.10
2023-03-14T02:39:43.872Z,1.50
2023-03-14T02:42:13.292Z,1.80
2023-03-14T02:44:51.554Z,1.90
2023-03-14T02:47:21.666Z,1.85
2023-03-14T02:49:49.443Z,2.38
2023-03-14T02:52:16.624Z,1.33
2023-03-14T02:54:44.373Z,2.92
2023-03-14T02:57:13.019Z,2.67
2023-03-14T02:59:40.376Z,3.25
2023-03-14T03:02:13.751Z,1.25
2023-03-14T03:04:41.038Z,1.50
2023-03-14T03:07:08.389Z,3.08
2023-03-14T03:09:35.752Z,1.75
2023-03-14T03:12:03.078Z,1.60
2023-03-14T03:14:32.424Z,1.75
2023-03-14T03:17:03.688Z,1.67
2023-03-14T03:19:32.231Z,3.53
2023-03-14T03:21:59.832Z,2.63
2023-03-14T03:24:27.666Z,3.78
2023-03-14T03:26:55.952Z,2.85
2023-03-14T03:29:23.417Z,2.13
2023-03-14T03:31:52.925Z,3.00
2023-03-14T03:34:21.036Z,3.90
2023-03-14T03:36:51.855Z,3.88
2023-03-14T03:39:19.152Z,2.85
2023-03-14T03:41:48.796Z,1.83
2023-03-14T03:44:16.056Z,2.92
2023-03-14T03:46:43.640Z,1.75
2023-03-14T03:49:12.366Z,1.95
2023-03-14T03:51:40.948Z,1.45
2023-03-14T03:54:08.241Z,3.50
2023-03-14T03:56:35.582Z,1.70
2023-03-14T03:59:03.117Z,2.78
2023-03-14T04:01:30.631Z,2.72
2023-03-14T04:04:00.231Z,3.40
2023-03-14T04:06:30.344Z,4.05
2023-03-14T04:09:00.120Z,2.60
2023-03-14T04:11:47.657Z,2.13
2023-03-14T04:14:20.535Z,0.77
2023-03-14T04:16:49.267Z,1.90
2023-03-14T04:19:20.098Z,3.45
2023-03-14T04:21:49.520Z,3.67
2023-03-14T04:24:16.853Z,3.47
2023-03-14T04:26:47.771Z,3.60
2023-03-14T04:29:34.193Z,4.32
2023-03-14T04:32:01.570Z,4.18
2023-03-14T04:34:28.995Z,4.63
2023-03-14T04:36:59.199Z,4.13
2023-03-14T04:39:35.545Z,3.80
2023-03-14T04:42:23.163Z,2.50
2023-03-14T04:44:51.191Z,3.15
2023-03-14T04:47:22.296Z,2.75
2023-03-14T04:49:51.106Z,3.00
2023-03-14T04:52:20.550Z,2.75
2023-03-14T04:54:48.405Z,2.20
2023-03-14T04:57:15.903Z,2.83
2023-03-14T04:59:43.818Z,3.22
2023-03-14T05:02:24.523Z,3.15
2023-03-14T05:05:08.713Z,2.75
2023-03-14T05:08:09.843Z,2.65
2023-03-14T05:10:59.021Z,2.40
2023-03-14T05:13:52.431Z,2.30
2023-03-14T05:16:48.935Z,2.40
2023-03-14T05:19:36.095Z,2.03
2023-03-14T05:22:03.549Z,2.65
2023-03-14T05:24:50.562Z,2.45
2023-03-14T05:27:38.351Z,2.60
2023-03-14T05:30:33.458Z,1.52
2023-03-14T05:33:20.536Z,2.22
2023-03-14T05:35:53.759Z,2.53
2023-03-14T05:38:59.652Z,1.77
2023-03-14T05:41:40.581Z,1.92
2023-03-14T05:44:31.068Z,1.63
2023-03-14T05:49:43.965Z,1.95
2023-03-14T05:52:31.643Z,1.55
2023-03-14T05:55:31.320Z,1.60
2023-03-14T05:58:20.142Z,1.67
2023-03-14T06:01:10.883Z,1.70
2023-03-14T06:03:54.367Z,1.55
2023-03-14T06:06:22.023Z,1.10
2023-03-14T06:08:49.509Z,2.35
2023-03-14T06:11:17.436Z,2.17
2023-03-14T06:13:47.374Z,1.63
2023-03-14T06:16:15.551Z,1.73
2023-03-14T06:18:43.464Z,1.30
2023-03-14T06:21:13.181Z,0.80
2023-03-14T06:23:40.457Z,1.10
2023-03-14T06:26:08.248Z,1.13
2023-03-14T06:28:35.559Z,1.17
2023-03-14T06:31:07.080Z,1.58
2023-03-14T06:33:42.023Z,1.30
2023-03-14T06:36:10.371Z,2.15
2023-03-14T06:38:39.835Z,1.08
2023-03-14T06:41:08.705Z,1.23
2023-03-14T06:43:40.251Z,1.02
2023-03-14T06:46:10.517Z,2.20
2023-03-14T06:48:40.191Z,1.27
2023-03-14T06:51:08.600Z,1.25
2023-03-14T06:53:35.858Z,1.13
2023-03-14T06:56:04.175Z,1.10
2023-03-14T06:58:33.493Z,1.33
2023-03-14T07:01:01.987Z,1.70
2023-03-14T07:03:36.732Z,1.67
2023-03-14T07:06:06.746Z,1.27
2023-03-14T07:08:34.368Z,1.63
2023-03-14T07:11:02.451Z,1.35
2023-03-14T07:13:29.877Z,1.20
2023-03-14T07:18:30.138Z,1.73
2023-03-14T07:20:59.161Z,0.82
2023-03-14T07:23:26.493Z,0.95
2023-03-14T07:25:55.114Z,1.02
2023-03-14T07:28:25.648Z,0.82
2023-03-14T07:30:59.657Z,1.33
2023-03-14T07:36:00.504Z,1.30
2023-03-14T07:38:28.434Z,1.52
2023-03-14T07:41:24.677Z,1.50
2023-03-14T07:44:10.646Z,2.00
2023-03-14T07:46:38.500Z,1.23
2023-03-14T07:49:05.814Z,1.77
2023-03-14T07:51:34.530Z,1.60
2023-03-14T07:54:02.131Z,1.20
2023-03-14T07:56:29.527Z,1.13
2023-03-14T07:58:57.604Z,1.10
2023-03-14T08:01:25.035Z,1.67
2023-03-14T08:03:52.351Z,2.40
2023-03-14T08:06:19.891Z,1.10
2023-03-14T08:08:48.600Z,0.77
2023-03-14T08:11:15.924Z,1.25
2023-03-14T08:13:43.369Z,1.00
2023-03-14T08:16:11.058Z,1.77
2023-03-14T08:18:38.323Z,1.60
2023-03-14T08:21:06.084Z,1.00
2023-03-14T08:23:33.574Z,1.00
2023-03-14T08:26:03.125Z,1.60
2023-03-14T08:28:31.793Z,1.35
2023-03-14T08:30:59.259Z,1.25
2023-03-14T08:33:27.018Z,1.73
2023-03-14T08:35:54.723Z,1.10
2023-03-14T08:38:22.012Z,0.98
2023-03-14T08:40:50.341Z,1.73
2023-03-14T08:43:18.935Z,1.10
2023-03-14T08:45:46.155Z,1.45
2023-03-14T08:48:13.419Z,1.20
2023-03-14T08:50:40.863Z,1.55
2023-03-14T08:53:08.356Z,1.73
2023-03-14T08:55:35.959Z,1.02
2023-03-14T08:58:03.492Z,1.30
2023-03-14T09:00:32.231Z,1.50
2023-03-14T09:02:59.631Z,1.05
2023-03-14T09:05:27.153Z,1.55
2023-03-14T09:07:54.499Z,1.00
2023-03-14T09:10:22.048Z,0.93
2023-03-14T09:12:49.285Z,1.38
2023-03-14T09:15:16.644Z,1.65
2023-03-14T09:17:45.705Z,1.83
2023-03-14T09:20:13.606Z,1.75
2023-03-14T09:22:40.908Z,1.40
2023-03-14T09:25:09.122Z,1.75
2023-03-14T09:27:36.282Z,1.45
2023-03-14T09:30:04.199Z,0.30
2023-03-14T09:32:32.819Z,1.42
2023-03-14T09:35:01.880Z,2.58
2023-03-14T09:37:30.549Z,1.63
2023-03-14T09:39:57.752Z,1.35
2023-03-14T09:42:28.915Z,1.20
2023-03-14T09:44:58.635Z,1.08
2023-03-14T09:47:27.784Z,1.23
2023-03-14T09:49:55.288Z,1.35
2023-03-14T09:52:27.990Z,1.63
2023-03-14T09:57:26.285Z,1.30
2023-03-14T09:59:57.599Z,1.38
2023-03-14T10:02:26.320Z,2.05
2023-03-14T10:04:55.469Z,1.02
2023-03-14T10:07:30.024Z,1.38
2023-03-14T10:09:58.001Z,1.27
2023-03-14T10:12:33.838Z,1.50
2023-03-14T10:15:06.316Z,1.40
2023-03-14T10:17:41.144Z,0.95
2023-03-14T10:20:28.817Z,1.35
2023-03-14T10:22:57.645Z,1.25
2023-03-14T10:25:28.575Z,1.23
2023-03-14T10:27:55.810Z,0.80
2023-03-14T10:30:36.239Z,1.30
2023-03-14T10:33:11.069Z,1.17
2023-03-14T10:35:38.584Z,0.93
2023-03-14T10:38:14.440Z,1.83
2023-03-14T10:40:50.075Z,1.27
2023-03-14T10:43:22.730Z,1.10
2023-03-14T10:48:23.803Z,1.83
2023-03-14T10:50:56.978Z,0.45
2023-03-14T10:53:27.754Z,1.00
2023-03-14T10:55:58.073Z,1.48
2023-03-14T10:58:27.608Z,0.85
2023-03-14T11:01:04.857Z,1.30
2023-03-14T11:03:35.186Z,1.65
2023-03-14T11:06:09.738Z,2.17
2023-03-14T11:08:47.541Z,1.85
2023-03-14T11:11:20.463Z,1.63
2023-03-14T11:14:00.021Z,1.55
2023-03-14T11:16:35.553Z,1.00
2023-03-14T11:19:29.768Z,1.10
2023-03-14T11:22:06.137Z,1.73
2023-03-14T11:24:54.684Z,1.10
2023-03-14T11:27:26.574Z,1.65
2023-03-14T11:30:01.354Z,1.95
2023-03-14T11:32:43.030Z,1.48
2023-03-14T11:35:19.058Z,1.30
2023-03-14T11:37:52.930Z,1.67
2023-03-14T11:40:24.780Z,2.15
2023-03-14T11:43:00.677Z,1.40
2023-03-14T11:45:33.951Z,1.58
2023-03-14T11:48:16.017Z,1.00
2023-03-14T11:50:45.334Z,1.65
2023-03-14T11:53:18.122Z,1.67
2023-03-14T11:55:48.211Z,2.13
2023-03-14T11:58:20.868Z,1.40
2023-03-14T12:00:51.543Z,2.13
2023-03-14T12:03:27.725Z,1.30
2023-03-14T12:06:06.897Z,1.23
2023-03-14T12:08:46.159Z,1.35
2023-03-14T12:11:22.983Z,1.70
2023-03-14T12:13:52.607Z,1.52
2023-03-14T12:16:38.502Z,2.10
2023-03-14T12:19:36.809Z,1.15
2023-03-14T12:22:28.493Z,1.58
2023-03-14T12:25:00.380Z,1.50
2023-03-14T12:27:50.818Z,1.05
2023-03-14T12:30:28.457Z,1.15
2023-03-14T12:33:32.246Z,1.42
2023-03-14T12:36:06.016Z,1.38
2023-03-14T12:38:49.491Z,1.40
2023-03-14T12:41:21.160Z,2.03
2023-03-14T12:43:50.304Z,1.20
2023-03-14T12:46:24.048Z,1.73
2023-03-14T12:48:55.785Z,0.90
2023-03-14T12:51:30.874Z,1.20
2023-03-14T12:54:19.158Z,1.40
2023-03-14T12:56:58.969Z,1.73
2023-03-14T12:59:35.659Z,1.70
2023-03-14T13:02:24.608Z,1.30
2023-03-14T13:04:55.132Z,1.20
2023-03-14T13:07:37.657Z,1.58
2023-03-14T13:10:22.285Z,1.40
2023-03-14T13:12:53.530Z,1.33
2023-03-14T13:15:32.586Z,1.08
2023-03-14T13:18:04.080Z,1.00
2023-03-14T13:20:36.651Z,1.83
2023-03-14T13:23:04.897Z,1.30
2023-03-14T13:25:35.166Z,1.50
2023-03-14T13:28:03.870Z,2.35
2023-03-14T13:30:40.635Z,1.30
2023-03-14T13:33:08.077Z,1.70
2023-03-14T13:35:41.805Z,1.48
2023-03-14T13:38:18.535Z,2.08
2023-03-14T13:40:47.898Z,1.92
2023-03-14T13:43:19.158Z,1.38
2023-03-14T13:45:51.975Z,1.48
2023-03-14T13:48:20.376Z,1.45
2023-03-14T13:50:52.776Z,1.88
2023-03-14T13:53:20.384Z,1.67
2023-03-14T13:55:47.808Z,1.60
2023-03-14T13:58:22.668Z,1.65
2023-03-14T14:01:01.442Z,1.60
2023-03-14T14:03:31.476Z,1.58
2023-03-14T14:06:00.893Z,1.60
2023-03-14T14:08:31.658Z,1.48
2023-03-14T14:11:02.289Z,2.20
2023-03-14T14:13:36.730Z,1.50
2023-03-14T14:16:06.641Z,1.23
2023-03-14T14:18:35.670Z,1.77
2023-03-14T14:21:04.033Z,2.00
2023-03-14T14:23:32.803Z,2.00
2023-03-14T14:26:00.824Z,1.65
2023-03-14T14:28:30.714Z,2.08
2023-03-14T14:31:04.865Z,1.42
2023-03-14T14:33:41.969Z,1.60
2023-03-14T14:36:19.827Z,2.70
2023-03-14T14:38:59.874Z,2.45
2023-03-14T14:41:36.698Z,1.60
2023-03-14T14:44:05.459Z,2.13
2023-03-14T14:46:37.134Z,1.52
2023-03-14T14:49:10.103Z,1.70
2023-03-14T14:51:43.298Z,1.80
2023-03-14T14:54:16.131Z,1.98
2023-03-14T14:56:49.718Z,1.23
2023-03-14T14:59:23.252Z,1.95
2023-03-14T15:01:52.271Z,1.60
2023-03-14T15:04:21.121Z,1.63
2023-03-14T15:06:51.210Z,1.70
2023-03-14T15:09:18.833Z,2.10
2023-03-14T15:11:46.112Z,1.90
2023-03-14T15:14:13.403Z,1.95
2023-03-14T15:16:41.932Z,2.63
2023-03-14T15:19:24.245Z,2.03
2023-03-14T15:21:54.526Z,3.15
2023-03-14T15:24:22.235Z,1.25
2023-03-14T15:26:49.560Z,1.92
2023-03-14T15:29:17.746Z,1.80
2023-03-14T15:31:45.394Z,1.80
2023-03-14T15:34:12.911Z,1.90
2023-03-14T15:36:41.331Z,1.67
2023-03-14T15:39:12.254Z,1.83
2023-03-14T15:41:40.001Z,1.92
2023-03-14T15:44:07.443Z,1.63
2023-03-14T15:46:34.594Z,2.20
2023-03-14T15:49:01.810Z,2.50
2023-03-14T15:51:29.543Z,2.72
2023-03-14T15:53:57.050Z,1.77
2023-03-14T15:56:27.489Z,2.47
2023-03-14T15:58:57.410Z,2.13
2023-03-14T16:01:25.464Z,1.73
2023-03-14T16:03:53.813Z,2.85
2023-03-14T16:06:21.637Z,1.65
2023-03-14T16:08:49.016Z,1.75
2023-03-14T16:11:20.878Z,1.52
2023-03-14T16:16:17.424Z,2.22
2023-03-14T16:18:44.757Z,2.67
2023-03-14T16:21:13.506Z,1.85
2023-03-14T16:23:41.409Z,2.60
2023-03-14T16:26:11.243Z,2.33
2023-03-14T16:28:38.744Z,1.50
2023-03-14T16:31:09.486Z,1.88
2023-03-14T16:33:37.946Z,2.28
2023-03-14T16:36:08.939Z,2.00
2023-03-14T16:38:37.860Z,1.63
2023-03-14T16:41:06.827Z,2.08
2023-03-14T16:43:37.348Z,1.73
2023-03-14T16:46:06.025Z,1.73
2023-03-14T16:48:35.260Z,2.08
2023-03-14T16:51:02.386Z,1.45
2023-03-14T16:53:30.440Z,2.10
2023-03-14T16:55:59.746Z,1.23
2023-03-14T16:58:27.508Z,1.73
2023-03-14T17:00:58.002Z,1.33
2023-03-14T17:03:28.029Z,1.60
2023-03-14T17:05:56.849Z,2.22
2023-03-14T17:08:24.310Z,1.52
2023-03-14T17:10:52.048Z,1.55
2023-03-14T17:13:25.557Z,1.20
2023-03-14T17:15:55.101Z,1.67
2023-03-14T17:18:22.653Z,1.48
2023-03-14T17:20:50.823Z,1.73
2023-03-14T17:23:19.681Z,1.50
2023-03-14T17:25:47.746Z,1.30
2023-03-14T17:28:15.163Z,1.88
2023-03-14T17:30:42.661Z,1.40
2023-03-14T17:33:10.059Z,1.60
2023-03-14T17:35:37.616Z,1.98
2023-03-14T17:38:05.351Z,1.75
2023-03-14T17:40:34.114Z,1.20
2023-03-14T17:43:01.376Z,1.50
2023-03-14T17:45:28.975Z,1.60
2023-03-14T17:47:56.264Z,1.73
2023-03-14T17:50:23.684Z,1.40
2023-03-14T17:52:51.341Z,1.85
2023-03-14T17:55:18.731Z,1.45
2023-03-14T17:57:47.406Z,1.42
2023-03-14T18:00:15.551Z,1.30
2023-03-14T18:02:43.229Z,1.42
2023-03-14T18:05:10.653Z,1.23
2023-03-14T18:07:38.715Z,1.25
2023-03-14T18:10:07.000Z,1.10
2023-03-14T18:12:34.376Z,1.60
2023-03-14T18:15:04.277Z,1.15
2023-03-14T18:17:31.780Z,0.85
2023-03-14T18:19:59.371Z,1.83
2023-03-14T18:22:26.793Z,1.45
2023-03-14T18:24:54.468Z,1.65
2023-03-14T18:27:21.719Z,1.33
2023-03-14T18:29:48.997Z,1.27
2023-03-14T18:32:18.173Z,1.42
2023-03-14T18:34:45.859Z,1.05
2023-03-14T18:37:13.271Z,0.85
2023-03-14T18:39:40.780Z,0.73
2023-03-14T18:42:08.098Z,0.80
2023-03-14T18:44:35.345Z,1.45
2023-03-14T18:47:02.813Z,1.58
2023-03-14T18:49:34.962Z,2.03
2023-03-14T18:52:03.234Z,1.08
2023-03-14T18:54:30.725Z,0.80
2023-03-14T18:57:00.245Z,1.00
2023-03-14T18:59:27.566Z,0.95
2023-03-14T19:01:54.899Z,0.68
2023-03-14T19:04:22.175Z,1.20
2023-03-14T19:06:54.148Z,0.98
2023-03-14T19:09:21.530Z,0.95
2023-03-14T19:11:48.959Z,1.30
2023-03-14T19:14:17.839Z,1.23
2023-03-14T19:16:45.372Z,1.13
2023-03-14T19:19:13.122Z,0.40
2023-03-14T19:21:40.497Z,0.88
2023-03-14T19:24:09.525Z,0.68
2023-03-14T19:26:38.311Z,1.10
2023-03-14T19:29:06.422Z,0.60
2023-03-14T19:31:33.827Z,0.70
2023-03-14T19:34:01.152Z,1.05
2023-03-14T19:36:30.510Z,1.30
2023-03-14T19:39:00.061Z,0.60
2023-03-14T19:41:31.654Z,0.70
2023-03-14T19:43:59.274Z,0.75
2023-03-14T19:46:26.776Z,0.55
2023-03-14T19:48:54.411Z,0.90
2023-03-14T19:51:23.046Z,1.25
2023-03-14T19:53:50.498Z,0.70
2023-03-14T19:56:21.980Z,0.82
2023-03-14T19:58:50.666Z,0.45
2023-03-14T20:01:18.020Z,0.80
2023-03-14T20:03:45.346Z,0.43
2023-03-14T20:06:13.279Z,0.80
2023-03-14T20:08:41.303Z,0.90
2023-03-14T20:11:08.969Z,0.47
2023-03-14T20:13:36.296Z,0.88
2023-03-14T20:16:06.175Z,0.40
2023-03-14T20:18:33.621Z,0.60
2023-03-14T20:21:02.012Z,0.63
2023-03-14T20:23:30.858Z,0.75
2023-03-14T20:25:59.687Z,0.63
2023-03-14T20:28:27.060Z,1.23
2023-03-14T20:30:54.933Z,0.43
2023-03-14T20:33:24.657Z,0.50
2023-03-14T20:35:56.116Z,0.52
2023-03-14T20:38:24.450Z,0.52
2023-03-14T20:40:51.589Z,0.40
2023-03-14T20:43:19.434Z,0.85
2023-03-14T20:45:52.770Z,0.88
2023-03-14T20:48:20.128Z,0.70
2023-03-14T20:50:49.321Z,0.50
2023-03-14T20:53:17.046Z,0.65
2023-03-14T20:55:44.964Z,0.90
2023-03-14T20:58:13.326Z,0.85
2023-03-14T21:00:40.914Z,0.43
2023-03-14T21:03:10.875Z,1.00
2023-03-14T21:05:41.747Z,0.77
2023-03-14T21:08:12.062Z,0.65
2023-03-14T21:10:39.645Z,0.57
2023-03-14T21:13:07.070Z,0.30
2023-03-14T21:15:36.276Z,0.60
2023-03-14T21:18:05.746Z,0.52
2023-03-14T21:20:33.793Z,0.70
2023-03-14T21:23:01.308Z,1.63
2023-03-14T21:25:31.404Z,0.60
2023-03-14T21:27:58.779Z,0.70
2023-03-14T21:30:26.506Z,0.40
2023-03-14T21:32:54.045Z,1.35
2023-03-14T21:35:21.311Z,0.50
2023-03-14T21:37:48.661Z,0.98
2023-03-14T21:40:16.190Z,0.57
2023-03-14T21:42:44.989Z,0.60
2023-03-14T21:45:12.741Z,1.02
2023-03-14T21:47:40.347Z,0.55
2023-03-14T21:50:08.105Z,0.77
2023-03-14T21:52:35.325Z,0.88
2023-03-14T21:55:04.204Z,0.88
2023-03-14T21:57:31.743Z,0.80
2023-03-14T22:00:00.642Z,0.77
2023-03-14T22:02:28.093Z,0.40
2023-03-14T22:04:55.665Z,0.40
2023-03-14T22:07:23.018Z,0.95
2023-03-14T22:09:50.367Z,0.80
2023-03-14T22:12:19.658Z,0.40
2023-03-14T22:14:48.248Z,0.90
2023-03-14T22:17:16.988Z,0.80
2023-03-14T22:19:44.451Z,0.45
2023-03-14T22:22:12.177Z,0.68
2023-03-14T22:24:41.062Z,0.68
2023-03-14T22:27:08.720Z,1.23
2023-03-14T22:29:37.819Z,0.80
2023-03-14T22:32:06.013Z,0.95
2023-03-14T22:34:35.355Z,0.60
2023-03-14T22:37:04.841Z,0.70
2023-03-14T22:39:33.121Z,0.90
2023-03-14T22:42:01.217Z,0.80
2023-03-14T22:44:32.767Z,0.35
2023-03-14T22:47:01.258Z,1.20
2023-03-14T22:49:29.895Z,0.90
2023-03-14T22:51:58.641Z,1.08
2023-03-14T22:54:28.544Z,1.13
2023-03-14T22:56:56.095Z,1.50
2023-03-14T22:59:23.380Z,0.35
2023-03-14T23:01:50.808Z,1.05
2023-03-14T23:04:18.318Z,0.50
2023-03-14T23:06:45.683Z,0.57
2023-03-14T23:09:14.455Z,0.70
2023-03-14T23:11:41.864Z,0.90
2023-03-14T23:14:09.254Z,0.90
2023-03-14T23:16:40.690Z,0.90
2023-03-14T23:19:10.702Z,0.70
2023-03-14T23:21:38.042Z,1.23
2023-03-14T23:24:06.224Z,1.17
2023-03-14T23:26:35.907Z,1.42
2023-03-14T23:29:07.225Z,0.70
2023-03-14T23:31:34.865Z,1.15
2023-03-14T23:34:02.455Z,1.23
2023-03-14T23:36:29.970Z,1.17
2023-03-14T23:38:57.234Z,0.90
2023-03-14T23:41:24.388Z,1.17
2023-03-14T23:43:53.473Z,1.27
2023-03-14T23:46:21.880Z,1.10
2023-03-14T23:48:49.318Z,1.23
2023-03-14T23:51:17.275Z,1.55
2023-03-14T23:53:44.644Z,1.30
2023-03-14T23:56:13.680Z,1.70
2023-03-14T23:58:41.250Z,0.88
